Harmony, CA

8:15 PM PST on February 13, 2016 (GMT -0800)
Tower, Decker Ranch | | Change Station
CLOSE
Current Station
Personal Weather Station
Location: Cambria, CA
Elevation: 615 ft
Nearby Weather Stations
Active Advisory: High Surf Advisory

Elev 615 ft 35.53 °N, 121.06 °W | Updated 171 days ago

Clear
Clear
53 °F
Feels Like 53 °F
N
5
Wind Variable Wind from North
Gusts mph

Today
High -- | Low -- °F
--% Chance of Precip.
Yesterday
High -- | Low -- °F
Precip. -- in
Pressure 30.22 in
Visibility 10.0 miles
Clouds Clear
Dew Point 49 °F
Humidity 87%
Rainfall in
Snow Depth Not available.
6:53 AM 5:43 PM
Waxing Crescent, 37% visible
METAR KPRB 140353Z AUTO 09007KT 10SM CLR 15/11 A3021 RMK AO2 SLP231 T01500106 TSNO
Pressure 30.22 in
Visibility 10.0 miles
Clouds Clear
Dew Point 49 °F
Humidity 87%
Rainfall in
Snow Depth Not available.
6:53 AM 5:43 PM
Waxing Crescent, 37% visible
METAR KPRB 140353Z AUTO 09007KT 10SM CLR 15/11 A3021 RMK AO2 SLP231 T01500106 TSNO

10-Day Weather Forecast

Almanac

Astronomy

Feb. 13, 2016 Rise Set
Actual Time
Civil Twilight
Nautical Twilight
Astronomical Twilight
Moon
Length of Visible Light
Length of Day
Tomorrow will be .
, % of the Moon is Illuminated

Today's Extremes

State Highs State Lows

Community

WunderPhotos

Upload Photos

1,892,743 photos uploaded!

WunderBlog® & News

Nearby

Air Quality

  Air Quality AQ Index Pollutant
Not available.

Snow Depth

Station Depth Elevation

Earthquake Activity

City Distance Mag. Time & Date
Minimum magnitude displayed is 2.5.

Coastal Water Temperatures

Place Temperature

Stations

Nearby Weather Stations

Station Location Temp. Windchill Dew Point Humidity Wind Precip. Elev Updated Type
                   

Watches & Warnings

High Surf Advisory
Issued: 12:04 PM PST Feb. 13, 2016 – National Weather Service

... High surf advisory now in effect until 6 PM PST Sunday...

* surf... surf of 10 to 15 feet today will subside to 8 to 12 feet
on Sunday.

* Impacts... large waves and strong rip currents will increase the
risk of ocean drowning. Sneaker waves can suddenly wash people
off of beaches and rock jetties. Minor beach erosion is
possible.

* Locations... surf will be highest on west and northwest facing
beaches.

Precautionary/preparedness actions...

A high surf advisory means that high surf and rip currents will
make swimming and rock jetties dangerous.

Remember... if caught in a rip current... swim parallel to shore
until you are free of the powerful current. Always swim near a
lifeguard.